createdAt,value
2023-09-21T00:04:54.997Z,78.00
2023-09-21T00:09:58.157Z,78.10
2023-09-21T00:15:00.588Z,78.00
2023-09-21T00:20:24.798Z,78.10
2023-09-21T00:25:31.564Z,78.20
2023-09-21T00:30:33.647Z,78.10
2023-09-21T00:35:45.800Z,78.10
2023-09-21T00:40:49.111Z,78.10
2023-09-21T00:45:58.377Z,78.30
2023-09-21T00:51:02.477Z,78.40
2023-09-21T00:56:13.849Z,78.40
2023-09-21T01:01:24.742Z,78.40
2023-09-21T01:06:26.944Z,78.40
2023-09-21T01:11:31.160Z,78.40
2023-09-21T01:16:33.123Z,78.50
2023-09-21T01:21:37.043Z,78.50
2023-09-21T01:26:38.977Z,78.50
2023-09-21T01:31:41.375Z,78.50
2023-09-21T01:36:45.457Z,78.60
2023-09-21T01:41:47.443Z,78.50
2023-09-21T01:46:51.106Z,78.60
2023-09-21T01:51:53.090Z,78.60
2023-09-21T01:56:55.441Z,78.30
2023-09-21T02:01:57.461Z,78.30
2023-09-21T02:06:59.353Z,78.50
2023-09-21T02:12:01.399Z,78.70
2023-09-21T02:17:03.359Z,78.70
2023-09-21T02:22:05.993Z,78.70
2023-09-21T02:27:07.934Z,78.80
2023-09-21T02:32:11.641Z,78.80
2023-09-21T02:37:14.163Z,79.00
2023-09-21T02:42:16.041Z,79.00
2023-09-21T02:47:18.430Z,79.20
2023-09-21T02:52:22.321Z,79.20
2023-09-21T02:57:24.405Z,79.10
2023-09-21T03:02:30.648Z,79.10
2023-09-21T03:07:34.318Z,79.30
2023-09-21T03:12:38.361Z,79.40
2023-09-21T03:17:42.077Z,79.40
2023-09-21T03:22:44.308Z,79.50
2023-09-21T03:27:49.723Z,79.50
2023-09-21T03:32:52.486Z,79.50
2023-09-21T03:37:55.760Z,79.80
2023-09-21T03:42:57.930Z,79.70
2023-09-21T03:48:05.256Z,79.70
2023-09-21T03:53:10.246Z,79.90
2023-09-21T03:58:13.569Z,79.90
2023-09-21T04:03:16.126Z,79.90
2023-09-21T04:08:32.358Z,79.90
2023-09-21T04:13:35.180Z,79.90
2023-09-21T04:18:37.475Z,80.00
2023-09-21T04:23:39.398Z,80.00
2023-09-21T04:28:41.649Z,80.00
2023-09-21T04:33:43.806Z,80.00
2023-09-21T04:38:49.398Z,80.20
2023-09-21T04:43:51.786Z,80.20
2023-09-21T04:48:54.178Z,80.20
2023-09-21T04:53:56.276Z,80.20
2023-09-21T04:58:58.215Z,80.30
2023-09-21T05:04:00.324Z,80.40
2023-09-21T05:09:02.759Z,81.20
2023-09-21T05:14:04.866Z,80.50
2023-09-21T05:19:06.722Z,80.60
2023-09-21T05:24:08.624Z,80.60
2023-09-21T05:29:10.927Z,80.60
2023-09-21T05:34:13.032Z,80.60
2023-09-21T05:39:18.231Z,80.80
2023-09-21T05:44:26.148Z,80.80
2023-09-21T05:49:29.157Z,80.90
2023-09-21T05:54:31.286Z,81.00
2023-09-21T05:59:33.205Z,81.00
2023-09-21T06:04:35.732Z,81.00
2023-09-21T06:09:37.962Z,81.10
2023-09-21T06:14:40.205Z,81.10
2023-09-21T06:19:43.037Z,81.20
2023-09-21T06:24:46.021Z,81.20
2023-09-21T06:29:47.975Z,81.40
2023-09-21T06:34:50.055Z,81.50
2023-09-21T06:39:52.474Z,81.60
2023-09-21T06:44:56.241Z,81.80
2023-09-21T06:49:58.162Z,82.40
2023-09-21T06:55:01.800Z,81.90
2023-09-21T07:00:10.735Z,82.00
2023-09-21T07:05:13.740Z,82.20
2023-09-21T07:10:17.550Z,82.20
2023-09-21T07:15:20.627Z,82.40
2023-09-21T07:20:27.445Z,82.50
2023-09-21T07:25:29.820Z,82.60
2023-09-21T07:30:34.144Z,82.50
2023-09-21T07:35:37.722Z,82.70
2023-09-21T07:40:39.721Z,82.60
2023-09-21T07:45:41.673Z,82.70
2023-09-21T07:50:44.317Z,83.00
2023-09-21T07:55:46.249Z,83.30
2023-09-21T08:00:48.182Z,83.40
2023-09-21T08:05:50.471Z,83.40
2023-09-21T08:10:53.997Z,83.50
2023-09-21T08:15:55.949Z,83.70
2023-09-21T08:20:57.981Z,83.60
2023-09-21T08:26:00.411Z,83.90
2023-09-21T08:31:02.522Z,83.80
2023-09-21T08:36:05.165Z,83.90
2023-09-21T08:41:07.530Z,84.00
2023-09-21T08:46:12.991Z,83.60
2023-09-21T08:51:19.779Z,83.60
2023-09-21T08:56:22.986Z,83.90
2023-09-21T09:01:25.276Z,83.80
2023-09-21T09:06:30.788Z,83.80
2023-09-21T09:11:41.354Z,83.90
2023-09-21T09:16:43.718Z,84.00
2023-09-21T09:21:51.123Z,84.30
2023-09-21T09:26:53.165Z,84.40
2023-09-21T09:31:55.861Z,85.50
2023-09-21T09:36:57.786Z,85.30
2023-09-21T09:42:00.851Z,85.60
2023-09-21T09:47:06.393Z,85.80
2023-09-21T09:52:10.576Z,85.70
2023-09-21T09:57:15.244Z,85.50
2023-09-21T10:02:18.772Z,85.10
2023-09-21T10:07:20.913Z,85.20
2023-09-21T10:12:25.122Z,85.30
2023-09-21T10:17:29.271Z,85.40
2023-09-21T10:22:31.347Z,85.20
2023-09-21T10:27:35.015Z,85.40
2023-09-21T10:32:45.351Z,85.40
2023-09-21T10:38:12.751Z,85.30
2023-09-21T10:43:39.261Z,85.30
2023-09-21T10:48:41.670Z,85.10
2023-09-21T10:53:43.863Z,85.10
2023-09-21T10:58:46.151Z,85.10
2023-09-21T11:03:51.979Z,85.40
2023-09-21T11:08:54.815Z,84.40
2023-09-21T11:13:56.767Z,84.40
2023-09-21T11:18:58.756Z,84.40
2023-09-21T11:24:01.290Z,84.40
2023-09-21T11:29:04.155Z,84.30
2023-09-21T11:34:08.760Z,84.20
2023-09-21T11:39:12.487Z,83.50
2023-09-21T11:44:14.598Z,82.80
2023-09-21T11:49:18.873Z,82.90
2023-09-21T11:54:21.172Z,83.10
2023-09-21T11:59:23.342Z,82.90
2023-09-21T12:04:26.462Z,82.70
2023-09-21T12:09:28.522Z,82.80
2023-09-21T12:14:30.871Z,82.80
2023-09-21T12:19:33.458Z,82.80
2023-09-21T12:24:36.342Z,82.60
2023-09-21T12:29:38.270Z,82.50
2023-09-21T12:34:40.265Z,82.40
2023-09-21T12:39:42.482Z,82.10
2023-09-21T12:44:44.543Z,81.90
2023-09-21T12:49:46.952Z,81.90
2023-09-21T12:54:48.840Z,81.80
2023-09-21T12:59:51.204Z,81.40
2023-09-21T13:05:00.962Z,81.00
2023-09-21T13:10:04.129Z,80.30
2023-09-21T13:15:06.891Z,80.30
2023-09-21T13:20:09.998Z,80.00
2023-09-21T13:25:11.893Z,80.00
2023-09-21T13:30:14.167Z,80.00
2023-09-21T13:35:17.025Z,80.00
2023-09-21T13:40:18.979Z,79.80
2023-09-21T13:45:20.896Z,79.60
2023-09-21T13:50:22.996Z,79.60
2023-09-21T13:55:25.858Z,80.30
2023-09-21T14:00:28.146Z,79.70
2023-09-21T14:05:30.446Z,79.70
2023-09-21T14:10:32.844Z,79.80
2023-09-21T14:15:34.800Z,79.90
2023-09-21T14:20:36.950Z,79.80
2023-09-21T14:25:38.868Z,79.80
2023-09-21T14:30:41.283Z,80.10
2023-09-21T14:35:43.416Z,79.20
2023-09-21T14:40:45.630Z,79.10
2023-09-21T14:45:47.526Z,79.00
2023-09-21T14:50:49.540Z,78.70
2023-09-21T14:55:53.446Z,78.50
2023-09-21T15:00:55.412Z,78.10
2023-09-21T15:05:57.429Z,78.10
2023-09-21T15:10:59.887Z,78.00
2023-09-21T15:16:02.351Z,78.00
2023-09-21T15:21:04.933Z,77.80
2023-09-21T15:26:19.018Z,77.70
2023-09-21T15:31:29.029Z,77.50
2023-09-21T15:36:31.008Z,77.30
2023-09-21T15:41:34.893Z,77.30
2023-09-21T15:46:39.425Z,77.20
2023-09-21T15:51:41.982Z,77.20
2023-09-21T15:56:45.570Z,77.30
2023-09-21T16:01:47.834Z,77.50
2023-09-21T16:06:49.752Z,77.50
2023-09-21T16:11:52.451Z,77.40
2023-09-21T16:16:54.374Z,77.40
2023-09-21T16:21:58.625Z,77.40
2023-09-21T16:27:00.627Z,77.10
2023-09-21T16:32:04.357Z,76.90
2023-09-21T16:37:06.250Z,77.00
2023-09-21T16:42:08.814Z,77.10
2023-09-21T16:47:11.430Z,77.00
2023-09-21T16:52:15.922Z,77.00
2023-09-21T16:57:21.401Z,77.20
2023-09-21T17:02:24.079Z,77.00
2023-09-21T17:07:26.113Z,77.10
2023-09-21T17:12:29.406Z,77.20
2023-09-21T17:17:31.329Z,77.20
2023-09-21T17:22:33.255Z,77.30
2023-09-21T17:27:35.289Z,77.30
2023-09-21T17:32:38.208Z,77.20
2023-09-21T17:37:40.349Z,77.10
2023-09-21T17:42:45.327Z,77.20
2023-09-21T17:47:49.126Z,77.30
2023-09-21T17:52:51.916Z,77.20
2023-09-21T17:57:54.168Z,77.30
2023-09-21T18:02:56.233Z,77.20
2023-09-21T18:07:58.869Z,77.30
2023-09-21T18:13:00.809Z,77.30
2023-09-21T18:18:04.468Z,77.40
2023-09-21T18:23:06.537Z,77.60
2023-09-21T18:28:09.628Z,77.70
2023-09-21T18:33:11.831Z,77.80
2023-09-21T18:38:13.845Z,77.70
2023-09-21T18:43:16.465Z,77.80
2023-09-21T18:48:18.364Z,77.80
2023-09-21T18:53:20.493Z,77.90
2023-09-21T18:58:23.008Z,78.00
2023-09-21T19:03:25.364Z,78.00
2023-09-21T19:08:28.015Z,77.80
2023-09-21T19:13:29.921Z,77.80
2023-09-21T19:18:32.074Z,77.80
2023-09-21T19:23:34.035Z,77.70
2023-09-21T19:28:36.039Z,77.70
2023-09-21T19:33:38.895Z,77.60
2023-09-21T19:38:41.013Z,77.50
2023-09-21T19:43:43.480Z,77.50
2023-09-21T19:48:45.633Z,78.20
2023-09-21T19:53:48.607Z,77.40
2023-09-21T19:58:50.560Z,77.30
2023-09-21T20:03:52.732Z,77.30
2023-09-21T20:08:55.503Z,77.20
2023-09-21T20:13:59.042Z,77.20
2023-09-21T20:19:02.500Z,77.30
2023-09-21T20:24:04.870Z,77.20
2023-09-21T20:29:08.707Z,77.10
2023-09-21T20:34:10.681Z,77.20
2023-09-21T20:39:12.623Z,77.20
2023-09-21T20:44:14.652Z,77.10
2023-09-21T20:49:16.754Z,77.20
2023-09-21T20:54:18.755Z,77.20
2023-09-21T20:59:20.886Z,77.10
2023-09-21T21:04:22.927Z,77.20
2023-09-21T21:09:25.204Z,77.10
2023-09-21T21:14:27.188Z,77.20
2023-09-21T21:19:29.114Z,77.20
2023-09-21T21:24:31.013Z,77.30
2023-09-21T21:29:33.006Z,77.10
2023-09-21T21:34:34.972Z,77.20
2023-09-21T21:39:37.621Z,77.30
2023-09-21T21:44:39.822Z,77.20
2023-09-21T21:49:41.714Z,77.40
2023-09-21T21:54:44.164Z,77.20
2023-09-21T21:59:46.722Z,77.20
2023-09-21T22:04:51.166Z,77.20
2023-09-21T22:09:53.226Z,77.20
2023-09-21T22:14:55.180Z,77.20
2023-09-21T22:19:59.035Z,76.80
2023-09-21T22:25:01.451Z,76.60
2023-09-21T22:30:06.168Z,76.70
2023-09-21T22:35:10.980Z,76.60
2023-09-21T22:40:13.021Z,76.60
2023-09-21T22:45:15.188Z,76.50
2023-09-21T22:50:20.760Z,76.50
2023-09-21T22:55:22.756Z,76.40
2023-09-21T23:00:24.700Z,76.40
2023-09-21T23:05:26.958Z,76.50
2023-09-21T23:10:31.256Z,76.40
2023-09-21T23:15:33.140Z,76.70
2023-09-21T23:20:35.140Z,76.60
2023-09-21T23:25:37.013Z,76.80
2023-09-21T23:30:39.607Z,76.90
2023-09-21T23:35:42.905Z,76.90
2023-09-21T23:40:44.890Z,77.20
2023-09-21T23:45:48.267Z,77.30
2023-09-21T23:50:50.669Z,77.30
2023-09-21T23:55:52.764Z,77.60
